sensor_id;sensor_type;location;lat;lon;timestamp;temperature;humidity
55083;DHT22;40978;52.850;6.506;2023-12-20T00:01:22;6.70;99.90
55083;DHT22;40978;52.850;6.506;2023-12-20T00:03:48;6.70;99.90
55083;DHT22;40978;52.850;6.506;2023-12-20T00:06:14;6.60;99.90
55083;DHT22;40978;52.850;6.506;2023-12-20T00:08:40;6.60;99.90
55083;DHT22;40978;52.850;6.506;2023-12-20T00:11:05;6.70;99.90
55083;DHT22;40978;52.850;6.506;2023-12-20T00:13:31;6.70;99.90
55083;DHT22;40978;52.850;6.506;2023-12-20T00:15:57;6.70;99.90
55083;DHT22;40978;52.850;6.506;2023-12-20T00:18:23;6.70;99.90
55083;DHT22;40978;52.850;6.506;2023-12-20T00:20:49;6.60;99.90
55083;DHT22;40978;52.850;6.506;2023-12-20T00:23:14;6.60;99.90
55083;DHT22;40978;52.850;6.506;2023-12-20T00:25:40;6.50;99.90
55083;DHT22;40978;52.850;6.506;2023-12-20T00:28:06;6.50;99.90
55083;DHT22;40978;52.850;6.506;2023-12-20T00:30:32;6.40;99.90
55083;DHT22;40978;52.850;6.506;2023-12-20T00:32:57;6.40;99.90
55083;DHT22;40978;52.850;6.506;2023-12-20T00:35:23;6.30;99.90
55083;DHT22;40978;52.850;6.506;2023-12-20T00:37:49;6.30;99.90
55083;DHT22;40978;52.850;6.506;2023-12-20T00:40:15;6.30;99.90
55083;DHT22;40978;52.850;6.506;2023-12-20T00:42:41;6.30;99.90
55083;DHT22;40978;52.850;6.506;2023-12-20T00:45:07;6.30;99.90
55083;DHT22;40978;52.850;6.506;2023-12-20T00:47:33;6.30;99.90
55083;DHT22;40978;52.850;6.506;2023-12-20T00:49:58;6.30;99.90
55083;DHT22;40978;52.850;6.506;2023-12-20T00:52:24;6.20;99.90
55083;DHT22;40978;52.850;6.506;2023-12-20T00:54:50;6.20;99.90
55083;DHT22;40978;52.850;6.506;2023-12-20T00:57:16;6.20;99.90
55083;DHT22;40978;52.850;6.506;2023-12-20T00:59:42;6.20;99.90
55083;DHT22;40978;52.850;6.506;2023-12-20T01:02:07;6.30;99.90
55083;DHT22;40978;52.850;6.506;2023-12-20T01:04:34;6.30;99.90
55083;DHT22;40978;52.850;6.506;2023-12-20T01:07:00;6.30;99.90
55083;DHT22;40978;52.850;6.506;2023-12-20T01:09:26;6.30;99.90
55083;DHT22;40978;52.850;6.506;2023-12-20T01:11:53;6.30;99.90
55083;DHT22;40978;52.850;6.506;2023-12-20T01:14:18;6.30;99.90
55083;DHT22;40978;52.850;6.506;2023-12-20T01:16:44;6.30;99.90
55083;DHT22;40978;52.850;6.506;2023-12-20T01:19:10;6.30;99.90
55083;DHT22;40978;52.850;6.506;2023-12-20T01:21:35;6.40;99.90
55083;DHT22;40978;52.850;6.506;2023-12-20T01:24:01;6.40;99.90
55083;DHT22;40978;52.850;6.506;2023-12-20T01:26:27;6.40;99.90
55083;DHT22;40978;52.850;6.506;2023-12-20T01:28:53;6.40;99.90
55083;DHT22;40978;52.850;6.506;2023-12-20T01:31:19;6.40;99.90
55083;DHT22;40978;52.850;6.506;2023-12-20T01:33:44;6.40;99.90
55083;DHT22;40978;52.850;6.506;2023-12-20T01:36:10;6.40;99.90
55083;DHT22;40978;52.850;6.506;2023-12-20T01:38:37;6.40;99.90
55083;DHT22;40978;52.850;6.506;2023-12-20T01:41:02;6.40;99.90
55083;DHT22;40978;52.850;6.506;2023-12-20T01:43:29;6.40;99.90
55083;DHT22;40978;52.850;6.506;2023-12-20T01:45:56;6.40;99.90
55083;DHT22;40978;52.850;6.506;2023-12-20T01:48:23;6.50;99.90
55083;DHT22;40978;52.850;6.506;2023-12-20T01:50:50;6.50;99.90
55083;DHT22;40978;52.850;6.506;2023-12-20T01:53:17;6.40;99.90
55083;DHT22;40978;52.850;6.506;2023-12-20T01:55:44;6.40;99.90
55083;DHT22;40978;52.850;6.506;2023-12-20T01:58:10;6.40;99.90
55083;DHT22;40978;52.850;6.506;2023-12-20T02:00:37;6.40;99.90
55083;DHT22;40978;52.850;6.506;2023-12-20T02:03:04;6.40;99.90
55083;DHT22;40978;52.850;6.506;2023-12-20T02:05:31;6.50;99.90
55083;DHT22;40978;52.850;6.506;2023-12-20T02:07:57;6.60;99.90
55083;DHT22;40978;52.850;6.506;2023-12-20T02:10:23;6.60;99.90
55083;DHT22;40978;52.850;6.506;2023-12-20T02:12:49;6.60;99.90
55083;DHT22;40978;52.850;6.506;2023-12-20T02:15:15;6.60;99.90
55083;DHT22;40978;52.850;6.506;2023-12-20T02:17:41;6.70;99.90
55083;DHT22;40978;52.850;6.506;2023-12-20T02:20:07;6.70;99.90
55083;DHT22;40978;52.850;6.506;2023-12-20T02:22:33;6.70;99.90
55083;DHT22;40978;52.850;6.506;2023-12-20T02:24:58;6.70;99.90
55083;DHT22;40978;52.850;6.506;2023-12-20T02:27:24;6.70;99.90
55083;DHT22;40978;52.850;6.506;2023-12-20T02:29:50;6.70;99.90
55083;DHT22;40978;52.850;6.506;2023-12-20T02:32:20;6.80;99.90
55083;DHT22;40978;52.850;6.506;2023-12-20T02:34:48;6.70;99.90
55083;DHT22;40978;52.850;6.506;2023-12-20T02:37:14;6.70;99.90
55083;DHT22;40978;52.850;6.506;2023-12-20T02:39:40;6.60;99.90
55083;DHT22;40978;52.850;6.506;2023-12-20T02:42:05;6.60;99.90
55083;DHT22;40978;52.850;6.506;2023-12-20T02:44:31;6.60;99.90
55083;DHT22;40978;52.850;6.506;2023-12-20T02:46:57;6.60;99.90
55083;DHT22;40978;52.850;6.506;2023-12-20T02:49:22;6.70;99.90
55083;DHT22;40978;52.850;6.506;2023-12-20T02:51:48;6.70;99.90
55083;DHT22;40978;52.850;6.506;2023-12-20T02:54:14;6.70;99.90
55083;DHT22;40978;52.850;6.506;2023-12-20T02:56:40;6.80;99.90
55083;DHT22;40978;52.850;6.506;2023-12-20T02:59:05;6.80;99.90
55083;DHT22;40978;52.850;6.506;2023-12-20T03:01:31;6.90;99.90
55083;DHT22;40978;52.850;6.506;2023-12-20T03:03:57;6.90;99.90
55083;DHT22;40978;52.850;6.506;2023-12-20T03:06:23;6.90;99.90
55083;DHT22;40978;52.850;6.506;2023-12-20T03:08:50;6.90;99.90
55083;DHT22;40978;52.850;6.506;2023-12-20T03:11:15;6.90;99.90
55083;DHT22;40978;52.850;6.506;2023-12-20T03:13:41;6.90;99.90
55083;DHT22;40978;52.850;6.506;2023-12-20T03:16:13;7.00;99.90
55083;DHT22;40978;52.850;6.506;2023-12-20T03:18:41;6.90;99.90
55083;DHT22;40978;52.850;6.506;2023-12-20T03:21:07;6.90;99.90
55083;DHT22;40978;52.850;6.506;2023-12-20T03:23:32;6.90;99.90
55083;DHT22;40978;52.850;6.506;2023-12-20T03:25:59;6.90;99.90
55083;DHT22;40978;52.850;6.506;2023-12-20T03:28:26;6.90;99.90
55083;DHT22;40978;52.850;6.506;2023-12-20T03:30:52;6.90;99.90
55083;DHT22;40978;52.850;6.506;2023-12-20T03:33:17;6.90;99.90
55083;DHT22;40978;52.850;6.506;2023-12-20T03:35:43;6.80;99.90
55083;DHT22;40978;52.850;6.506;2023-12-20T03:38:09;6.80;99.90
55083;DHT22;40978;52.850;6.506;2023-12-20T03:40:35;6.80;99.90
55083;DHT22;40978;52.850;6.506;2023-12-20T03:43:00;6.90;99.90
55083;DHT22;40978;52.850;6.506;2023-12-20T03:45:26;6.90;99.90
55083;DHT22;40978;52.850;6.506;2023-12-20T03:47:52;6.80;99.90
55083;DHT22;40978;52.850;6.506;2023-12-20T03:50:25;6.80;99.90
55083;DHT22;40978;52.850;6.506;2023-12-20T03:52:51;6.90;99.90
55083;DHT22;40978;52.850;6.506;2023-12-20T03:55:17;6.90;99.90
55083;DHT22;40978;52.850;6.506;2023-12-20T03:57:43;6.90;99.90
55083;DHT22;40978;52.850;6.506;2023-12-20T04:00:09;6.90;99.90
55083;DHT22;40978;52.850;6.506;2023-12-20T04:02:39;6.90;99.90
55083;DHT22;40978;52.850;6.506;2023-12-20T04:05:06;6.90;99.90
55083;DHT22;40978;52.850;6.506;2023-12-20T04:07:32;6.90;99.90
55083;DHT22;40978;52.850;6.506;2023-12-20T04:09:57;7.00;99.90
55083;DHT22;40978;52.850;6.506;2023-12-20T04:12:23;7.00;99.90
55083;DHT22;40978;52.850;6.506;2023-12-20T04:14:49;7.00;99.90
55083;DHT22;40978;52.850;6.506;2023-12-20T04:17:15;7.00;99.90
55083;DHT22;40978;52.850;6.506;2023-12-20T04:19:42;7.10;99.90
55083;DHT22;40978;52.850;6.506;2023-12-20T04:22:08;7.10;99.90
55083;DHT22;40978;52.850;6.506;2023-12-20T04:24:33;7.10;99.90
55083;DHT22;40978;52.850;6.506;2023-12-20T04:26:59;7.10;99.90
55083;DHT22;40978;52.850;6.506;2023-12-20T04:29:25;7.10;99.90
55083;DHT22;40978;52.850;6.506;2023-12-20T04:31:51;7.20;99.90
55083;DHT22;40978;52.850;6.506;2023-12-20T04:34:20;7.20;99.90
55083;DHT22;40978;52.850;6.506;2023-12-20T04:36:46;7.30;99.90
55083;DHT22;40978;52.850;6.506;2023-12-20T04:39:13;7.20;99.90
55083;DHT22;40978;52.850;6.506;2023-12-20T04:41:39;7.20;99.90
55083;DHT22;40978;52.850;6.506;2023-12-20T04:44:06;7.30;99.90
55083;DHT22;40978;52.850;6.506;2023-12-20T04:46:31;7.30;99.90
55083;DHT22;40978;52.850;6.506;2023-12-20T04:48:57;7.20;99.90
55083;DHT22;40978;52.850;6.506;2023-12-20T04:51:23;7.20;99.90
55083;DHT22;40978;52.850;6.506;2023-12-20T04:53:49;7.30;99.90
55083;DHT22;40978;52.850;6.506;2023-12-20T04:56:14;7.20;99.90
55083;DHT22;40978;52.850;6.506;2023-12-20T04:58:40;7.30;99.90
55083;DHT22;40978;52.850;6.506;2023-12-20T05:01:06;7.30;99.90
55083;DHT22;40978;52.850;6.506;2023-12-20T05:03:32;7.20;99.90
55083;DHT22;40978;52.850;6.506;2023-12-20T05:05:58;7.20;99.90
55083;DHT22;40978;52.850;6.506;2023-12-20T05:08:24;7.30;99.90
55083;DHT22;40978;52.850;6.506;2023-12-20T05:10:51;7.30;99.90
55083;DHT22;40978;52.850;6.506;2023-12-20T05:13:17;7.30;99.90
55083;DHT22;40978;52.850;6.506;2023-12-20T05:15:43;7.40;99.90
55083;DHT22;40978;52.850;6.506;2023-12-20T05:18:08;7.50;99.90
55083;DHT22;40978;52.850;6.506;2023-12-20T05:20:34;7.40;99.90
55083;DHT22;40978;52.850;6.506;2023-12-20T05:23:00;7.50;99.90
55083;DHT22;40978;52.850;6.506;2023-12-20T05:25:25;7.50;99.90
55083;DHT22;40978;52.850;6.506;2023-12-20T05:27:51;7.50;99.90
55083;DHT22;40978;52.850;6.506;2023-12-20T05:30:17;7.60;99.90
55083;DHT22;40978;52.850;6.506;2023-12-20T05:32:42;7.60;99.90
55083;DHT22;40978;52.850;6.506;2023-12-20T05:35:08;7.60;99.90
55083;DHT22;40978;52.850;6.506;2023-12-20T05:37:34;7.60;99.90
55083;DHT22;40978;52.850;6.506;2023-12-20T05:39:59;7.70;99.90
55083;DHT22;40978;52.850;6.506;2023-12-20T05:42:25;7.70;99.90
55083;DHT22;40978;52.850;6.506;2023-12-20T05:44:51;7.70;99.90
55083;DHT22;40978;52.850;6.506;2023-12-20T05:47:16;7.70;99.90
55083;DHT22;40978;52.850;6.506;2023-12-20T05:49:43;7.70;99.90
55083;DHT22;40978;52.850;6.506;2023-12-20T05:52:09;7.80;99.90
55083;DHT22;40978;52.850;6.506;2023-12-20T05:54:34;7.70;99.90
55083;DHT22;40978;52.850;6.506;2023-12-20T05:57:00;7.70;99.90
55083;DHT22;40978;52.850;6.506;2023-12-20T05:59:26;7.80;99.90
55083;DHT22;40978;52.850;6.506;2023-12-20T06:01:52;7.80;99.90
55083;DHT22;40978;52.850;6.506;2023-12-20T06:04:18;7.80;99.90
55083;DHT22;40978;52.850;6.506;2023-12-20T06:06:43;7.80;99.90
55083;DHT22;40978;52.850;6.506;2023-12-20T06:09:10;7.80;99.90
55083;DHT22;40978;52.850;6.506;2023-12-20T06:11:36;7.80;99.90
55083;DHT22;40978;52.850;6.506;2023-12-20T06:14:01;7.80;99.90
55083;DHT22;40978;52.850;6.506;2023-12-20T06:16:27;7.80;99.90
55083;DHT22;40978;52.850;6.506;2023-12-20T06:18:53;7.80;99.90
55083;DHT22;40978;52.850;6.506;2023-12-20T06:21:18;7.80;99.90
55083;DHT22;40978;52.850;6.506;2023-12-20T06:23:44;7.90;99.90
55083;DHT22;40978;52.850;6.506;2023-12-20T06:26:10;7.90;99.90
55083;DHT22;40978;52.850;6.506;2023-12-20T06:28:36;7.80;99.90
55083;DHT22;40978;52.850;6.506;2023-12-20T06:31:02;7.90;99.90
55083;DHT22;40978;52.850;6.506;2023-12-20T06:33:28;7.90;99.90
55083;DHT22;40978;52.850;6.506;2023-12-20T06:35:56;7.90;99.90
55083;DHT22;40978;52.850;6.506;2023-12-20T06:38:22;8.00;99.90
55083;DHT22;40978;52.850;6.506;2023-12-20T06:40:47;7.90;99.90
55083;DHT22;40978;52.850;6.506;2023-12-20T06:43:13;8.00;99.90
55083;DHT22;40978;52.850;6.506;2023-12-20T06:45:39;8.00;99.90
55083;DHT22;40978;52.850;6.506;2023-12-20T06:48:05;8.00;99.90
55083;DHT22;40978;52.850;6.506;2023-12-20T06:50:31;8.00;99.90
55083;DHT22;40978;52.850;6.506;2023-12-20T06:52:56;8.00;99.90
55083;DHT22;40978;52.850;6.506;2023-12-20T06:55:22;8.00;99.90
55083;DHT22;40978;52.850;6.506;2023-12-20T06:57:48;8.00;99.90
55083;DHT22;40978;52.850;6.506;2023-12-20T07:00:14;8.10;99.90
55083;DHT22;40978;52.850;6.506;2023-12-20T07:02:40;8.00;99.90
55083;DHT22;40978;52.850;6.506;2023-12-20T07:05:06;8.00;99.90
55083;DHT22;40978;52.850;6.506;2023-12-20T07:07:32;8.10;99.90
55083;DHT22;40978;52.850;6.506;2023-12-20T07:09:58;8.10;99.90
55083;DHT22;40978;52.850;6.506;2023-12-20T07:12:24;8.10;99.90
55083;DHT22;40978;52.850;6.506;2023-12-20T07:14:49;8.10;99.90
55083;DHT22;40978;52.850;6.506;2023-12-20T07:17:15;8.10;99.90
55083;DHT22;40978;52.850;6.506;2023-12-20T07:19:41;8.10;99.90
55083;DHT22;40978;52.850;6.506;2023-12-20T07:22:08;8.10;99.90
55083;DHT22;40978;52.850;6.506;2023-12-20T07:24:34;8.10;99.90
55083;DHT22;40978;52.850;6.506;2023-12-20T07:27:03;8.10;99.90
55083;DHT22;40978;52.850;6.506;2023-12-20T07:29:29;8.10;99.90
55083;DHT22;40978;52.850;6.506;2023-12-20T07:31:54;8.20;99.90
55083;DHT22;40978;52.850;6.506;2023-12-20T07:34:23;8.20;99.90
55083;DHT22;40978;52.850;6.506;2023-12-20T07:36:49;8.20;99.90
55083;DHT22;40978;52.850;6.506;2023-12-20T07:39:14;8.20;99.90
55083;DHT22;40978;52.850;6.506;2023-12-20T07:41:40;8.20;99.90
55083;DHT22;40978;52.850;6.506;2023-12-20T07:44:06;8.30;99.90
55083;DHT22;40978;52.850;6.506;2023-12-20T07:46:33;8.30;99.90
55083;DHT22;40978;52.850;6.506;2023-12-20T07:48:58;8.30;99.90
55083;DHT22;40978;52.850;6.506;2023-12-20T07:51:24;8.20;99.90
55083;DHT22;40978;52.850;6.506;2023-12-20T07:53:51;8.30;99.90
55083;DHT22;40978;52.850;6.506;2023-12-20T07:56:18;8.40;99.90
55083;DHT22;40978;52.850;6.506;2023-12-20T07:58:45;8.30;99.90
55083;DHT22;40978;52.850;6.506;2023-12-20T08:01:11;8.40;99.90
55083;DHT22;40978;52.850;6.506;2023-12-20T08:03:37;8.40;99.90
55083;DHT22;40978;52.850;6.506;2023-12-20T08:06:03;8.40;99.90
55083;DHT22;40978;52.850;6.506;2023-12-20T08:08:29;8.40;99.90
55083;DHT22;40978;52.850;6.506;2023-12-20T08:10:55;8.40;99.90
55083;DHT22;40978;52.850;6.506;2023-12-20T08:13:23;8.40;99.90
55083;DHT22;40978;52.850;6.506;2023-12-20T08:15:53;8.40;99.90
55083;DHT22;40978;52.850;6.506;2023-12-20T08:18:21;8.50;99.90
55083;DHT22;40978;52.850;6.506;2023-12-20T08:20:47;8.50;99.90
55083;DHT22;40978;52.850;6.506;2023-12-20T08:23:15;8.50;99.90
55083;DHT22;40978;52.850;6.506;2023-12-20T08:25:41;8.50;99.90
55083;DHT22;40978;52.850;6.506;2023-12-20T08:28:06;8.50;99.90
55083;DHT22;40978;52.850;6.506;2023-12-20T08:30:32;8.50;99.90
55083;DHT22;40978;52.850;6.506;2023-12-20T08:33:01;8.50;99.90
55083;DHT22;40978;52.850;6.506;2023-12-20T08:35:28;8.50;99.90
55083;DHT22;40978;52.850;6.506;2023-12-20T08:37:53;8.50;99.90
55083;DHT22;40978;52.850;6.506;2023-12-20T08:40:19;8.60;99.90
55083;DHT22;40978;52.850;6.506;2023-12-20T08:42:46;8.60;99.90
55083;DHT22;40978;52.850;6.506;2023-12-20T08:45:11;8.60;99.90
55083;DHT22;40978;52.850;6.506;2023-12-20T08:47:37;8.60;99.90
55083;DHT22;40978;52.850;6.506;2023-12-20T08:50:03;8.60;99.90
55083;DHT22;40978;52.850;6.506;2023-12-20T08:52:29;8.60;99.90
55083;DHT22;40978;52.850;6.506;2023-12-20T08:54:55;8.60;99.90
55083;DHT22;40978;52.850;6.506;2023-12-20T08:57:21;8.60;99.90
55083;DHT22;40978;52.850;6.506;2023-12-20T08:59:49;8.60;99.90
55083;DHT22;40978;52.850;6.506;2023-12-20T09:02:15;8.70;99.90
55083;DHT22;40978;52.850;6.506;2023-12-20T09:04:41;8.70;99.90
55083;DHT22;40978;52.850;6.506;2023-12-20T09:07:07;8.70;99.90
55083;DHT22;40978;52.850;6.506;2023-12-20T09:09:45;8.70;99.90
55083;DHT22;40978;52.850;6.506;2023-12-20T09:12:11;8.70;99.90
55083;DHT22;40978;52.850;6.506;2023-12-20T09:14:37;8.70;99.90
55083;DHT22;40978;52.850;6.506;2023-12-20T09:17:03;8.70;99.90
55083;DHT22;40978;52.850;6.506;2023-12-20T09:19:29;8.80;99.90
55083;DHT22;40978;52.850;6.506;2023-12-20T09:21:55;8.70;99.90
55083;DHT22;40978;52.850;6.506;2023-12-20T09:24:21;8.80;99.90
55083;DHT22;40978;52.850;6.506;2023-12-20T09:26:46;8.80;99.90
55083;DHT22;40978;52.850;6.506;2023-12-20T09:29:12;8.80;99.90
55083;DHT22;40978;52.850;6.506;2023-12-20T09:31:41;8.80;99.90
55083;DHT22;40978;52.850;6.506;2023-12-20T09:34:09;8.80;99.90
55083;DHT22;40978;52.850;6.506;2023-12-20T09:36:35;9.00;99.90
55083;DHT22;40978;52.850;6.506;2023-12-20T09:39:01;9.10;99.90
55083;DHT22;40978;52.850;6.506;2023-12-20T09:41:30;9.10;99.90
55083;DHT22;40978;52.850;6.506;2023-12-20T09:44:00;9.00;99.90
55083;DHT22;40978;52.850;6.506;2023-12-20T09:46:29;8.80;99.90
55083;DHT22;40978;52.850;6.506;2023-12-20T09:48:59;8.50;99.90
55083;DHT22;40978;52.850;6.506;2023-12-20T09:51:27;8.20;99.90
55083;DHT22;40978;52.850;6.506;2023-12-20T09:53:54;7.90;99.90
55083;DHT22;40978;52.850;6.506;2023-12-20T09:56:20;7.60;99.90
55083;DHT22;40978;52.850;6.506;2023-12-20T09:58:47;7.40;99.90
55083;DHT22;40978;52.850;6.506;2023-12-20T10:01:13;7.40;99.90
55083;DHT22;40978;52.850;6.506;2023-12-20T10:03:41;7.30;99.90
55083;DHT22;40978;52.850;6.506;2023-12-20T10:06:07;7.30;99.90
55083;DHT22;40978;52.850;6.506;2023-12-20T10:08:32;7.30;99.90
55083;DHT22;40978;52.850;6.506;2023-12-20T10:10:58;7.30;99.90
55083;DHT22;40978;52.850;6.506;2023-12-20T10:13:28;7.30;99.90
55083;DHT22;40978;52.850;6.506;2023-12-20T10:15:55;7.30;99.90
55083;DHT22;40978;52.850;6.506;2023-12-20T10:18:21;7.30;99.90
55083;DHT22;40978;52.850;6.506;2023-12-20T10:20:47;7.20;99.90
55083;DHT22;40978;52.850;6.506;2023-12-20T10:23:13;7.20;99.90
55083;DHT22;40978;52.850;6.506;2023-12-20T10:25:40;7.20;99.90
55083;DHT22;40978;52.850;6.506;2023-12-20T10:28:13;7.20;99.90
55083;DHT22;40978;52.850;6.506;2023-12-20T10:30:40;7.20;99.90
55083;DHT22;40978;52.850;6.506;2023-12-20T10:33:07;7.20;99.90
55083;DHT22;40978;52.850;6.506;2023-12-20T10:35:37;7.20;99.90
55083;DHT22;40978;52.850;6.506;2023-12-20T10:38:04;7.30;99.90
55083;DHT22;40978;52.850;6.506;2023-12-20T10:40:32;7.30;99.90
55083;DHT22;40978;52.850;6.506;2023-12-20T10:42:59;7.30;99.90
55083;DHT22;40978;52.850;6.506;2023-12-20T10:45:26;7.30;99.90
55083;DHT22;40978;52.850;6.506;2023-12-20T10:47:52;7.30;99.90
55083;DHT22;40978;52.850;6.506;2023-12-20T10:50:19;7.40;99.90
55083;DHT22;40978;52.850;6.506;2023-12-20T10:52:47;7.50;99.90
55083;DHT22;40978;52.850;6.506;2023-12-20T10:55:13;7.60;99.90
55083;DHT22;40978;52.850;6.506;2023-12-20T10:57:39;7.60;99.90
55083;DHT22;40978;52.850;6.506;2023-12-20T11:00:08;7.70;99.90
55083;DHT22;40978;52.850;6.506;2023-12-20T11:02:39;7.70;99.90
55083;DHT22;40978;52.850;6.506;2023-12-20T11:07:58;7.70;99.90
55083;DHT22;40978;52.850;6.506;2023-12-20T11:13:20;7.70;99.90
55083;DHT22;40978;52.850;6.506;2023-12-20T11:15:47;7.70;99.90
55083;DHT22;40978;52.850;6.506;2023-12-20T11:18:13;7.80;99.90
55083;DHT22;40978;52.850;6.506;2023-12-20T11:20:40;7.80;99.90
55083;DHT22;40978;52.850;6.506;2023-12-20T11:23:08;7.80;99.90
55083;DHT22;40978;52.850;6.506;2023-12-20T11:25:55;7.90;99.90
55083;DHT22;40978;52.850;6.506;2023-12-20T11:28:23;8.00;99.90
55083;DHT22;40978;52.850;6.506;2023-12-20T11:30:52;8.00;99.90
55083;DHT22;40978;52.850;6.506;2023-12-20T11:33:26;8.00;99.90
55083;DHT22;40978;52.850;6.506;2023-12-20T11:35:55;8.00;99.90
55083;DHT22;40978;52.850;6.506;2023-12-20T11:38:21;8.10;99.90
55083;DHT22;40978;52.850;6.506;2023-12-20T11:40:49;8.00;99.90
55083;DHT22;40978;52.850;6.506;2023-12-20T11:43:32;8.00;99.90
55083;DHT22;40978;52.850;6.506;2023-12-20T11:46:10;8.00;99.90
55083;DHT22;40978;52.850;6.506;2023-12-20T11:48:38;8.00;99.90
55083;DHT22;40978;52.850;6.506;2023-12-20T11:51:11;8.00;99.90
55083;DHT22;40978;52.850;6.506;2023-12-20T11:53:37;8.00;99.90
55083;DHT22;40978;52.850;6.506;2023-12-20T11:56:04;8.00;99.90
55083;DHT22;40978;52.850;6.506;2023-12-20T11:58:31;8.00;99.90
55083;DHT22;40978;52.850;6.506;2023-12-20T12:00:57;8.00;99.90
55083;DHT22;40978;52.850;6.506;2023-12-20T12:03:23;8.00;99.90
55083;DHT22;40978;52.850;6.506;2023-12-20T12:05:49;8.00;99.90
55083;DHT22;40978;52.850;6.506;2023-12-20T12:08:16;8.00;99.90
55083;DHT22;40978;52.850;6.506;2023-12-20T12:10:43;8.00;99.90
55083;DHT22;40978;52.850;6.506;2023-12-20T12:13:09;8.10;99.90
55083;DHT22;40978;52.850;6.506;2023-12-20T12:15:36;8.10;99.90
55083;DHT22;40978;52.850;6.506;2023-12-20T12:18:02;8.10;99.90
55083;DHT22;40978;52.850;6.506;2023-12-20T12:20:28;8.10;99.90
55083;DHT22;40978;52.850;6.506;2023-12-20T12:22:58;8.10;99.90
55083;DHT22;40978;52.850;6.506;2023-12-20T12:25:24;8.10;99.90
55083;DHT22;40978;52.850;6.506;2023-12-20T12:27:51;8.10;99.90
55083;DHT22;40978;52.850;6.506;2023-12-20T12:30:18;8.10;99.90
55083;DHT22;40978;52.850;6.506;2023-12-20T12:32:46;8.10;99.90
55083;DHT22;40978;52.850;6.506;2023-12-20T12:35:12;8.10;99.90
55083;DHT22;40978;52.850;6.506;2023-12-20T12:37:39;8.00;99.90
55083;DHT22;40978;52.850;6.506;2023-12-20T12:40:15;8.00;99.90
55083;DHT22;40978;52.850;6.506;2023-12-20T12:42:43;8.00;99.90
55083;DHT22;40978;52.850;6.506;2023-12-20T12:45:09;8.00;99.90
55083;DHT22;40978;52.850;6.506;2023-12-20T12:47:35;8.00;99.90
55083;DHT22;40978;52.850;6.506;2023-12-20T12:50:02;8.00;99.90
55083;DHT22;40978;52.850;6.506;2023-12-20T12:52:27;7.90;99.90
55083;DHT22;40978;52.850;6.506;2023-12-20T12:54:53;7.90;99.90
55083;DHT22;40978;52.850;6.506;2023-12-20T12:57:19;7.80;99.90
55083;DHT22;40978;52.850;6.506;2023-12-20T12:59:46;7.80;99.90
55083;DHT22;40978;52.850;6.506;2023-12-20T13:02:15;7.80;99.90
55083;DHT22;40978;52.850;6.506;2023-12-20T13:04:41;7.70;99.90
55083;DHT22;40978;52.850;6.506;2023-12-20T13:07:08;7.60;99.90
55083;DHT22;40978;52.850;6.506;2023-12-20T13:09:36;7.60;99.90
55083;DHT22;40978;52.850;6.506;2023-12-20T13:12:02;7.50;99.90
55083;DHT22;40978;52.850;6.506;2023-12-20T13:16:56;7.50;99.90
55083;DHT22;40978;52.850;6.506;2023-12-20T13:19:22;7.50;99.90
55083;DHT22;40978;52.850;6.506;2023-12-20T13:21:48;7.40;99.90
55083;DHT22;40978;52.850;6.506;2023-12-20T13:24:14;7.40;99.90
55083;DHT22;40978;52.850;6.506;2023-12-20T13:26:39;7.40;99.90
55083;DHT22;40978;52.850;6.506;2023-12-20T13:29:05;7.40;99.90
55083;DHT22;40978;52.850;6.506;2023-12-20T13:31:31;7.30;99.90
55083;DHT22;40978;52.850;6.506;2023-12-20T13:33:57;7.30;99.90
55083;DHT22;40978;52.850;6.506;2023-12-20T13:36:22;7.30;99.90
55083;DHT22;40978;52.850;6.506;2023-12-20T13:38:48;7.30;99.90
55083;DHT22;40978;52.850;6.506;2023-12-20T13:41:14;7.30;99.90
55083;DHT22;40978;52.850;6.506;2023-12-20T13:43:40;7.30;99.90
55083;DHT22;40978;52.850;6.506;2023-12-20T13:46:05;7.30;99.90
55083;DHT22;40978;52.850;6.506;2023-12-20T13:48:31;7.20;99.90
55083;DHT22;40978;52.850;6.506;2023-12-20T13:50:57;7.20;99.90
55083;DHT22;40978;52.850;6.506;2023-12-20T13:53:23;7.20;99.90
55083;DHT22;40978;52.850;6.506;2023-12-20T13:55:48;7.20;99.90
55083;DHT22;40978;52.850;6.506;2023-12-20T13:58:15;7.20;99.90
55083;DHT22;40978;52.850;6.506;2023-12-20T14:00:41;7.20;99.90
55083;DHT22;40978;52.850;6.506;2023-12-20T14:03:06;7.20;99.90
55083;DHT22;40978;52.850;6.506;2023-12-20T14:05:32;7.20;99.90
55083;DHT22;40978;52.850;6.506;2023-12-20T14:07:59;7.20;99.90
55083;DHT22;40978;52.850;6.506;2023-12-20T14:10:26;7.20;99.90
55083;DHT22;40978;52.850;6.506;2023-12-20T14:12:53;7.20;99.90
55083;DHT22;40978;52.850;6.506;2023-12-20T14:15:18;7.20;99.90
55083;DHT22;40978;52.850;6.506;2023-12-20T14:17:44;7.20;99.90
55083;DHT22;40978;52.850;6.506;2023-12-20T14:20:10;7.20;99.90
55083;DHT22;40978;52.850;6.506;2023-12-20T14:22:38;7.20;99.90
55083;DHT22;40978;52.850;6.506;2023-12-20T14:25:04;7.20;99.90
55083;DHT22;40978;52.850;6.506;2023-12-20T14:27:31;7.20;99.90
55083;DHT22;40978;52.850;6.506;2023-12-20T14:29:57;7.20;99.90
55083;DHT22;40978;52.850;6.506;2023-12-20T14:32:24;7.20;99.90
55083;DHT22;40978;52.850;6.506;2023-12-20T14:34:51;7.20;99.90
55083;DHT22;40978;52.850;6.506;2023-12-20T14:37:17;7.20;99.90
55083;DHT22;40978;52.850;6.506;2023-12-20T14:39:43;7.20;99.90
55083;DHT22;40978;52.850;6.506;2023-12-20T14:42:08;7.20;99.90
55083;DHT22;40978;52.850;6.506;2023-12-20T14:44:38;7.20;99.90
55083;DHT22;40978;52.850;6.506;2023-12-20T14:47:04;7.20;99.90
55083;DHT22;40978;52.850;6.506;2023-12-20T14:49:30;7.20;99.90
55083;DHT22;40978;52.850;6.506;2023-12-20T14:51:56;7.20;99.90
55083;DHT22;40978;52.850;6.506;2023-12-20T14:54:22;7.20;99.90
55083;DHT22;40978;52.850;6.506;2023-12-20T14:56:48;7.30;99.90
55083;DHT22;40978;52.850;6.506;2023-12-20T14:59:13;7.30;99.90
55083;DHT22;40978;52.850;6.506;2023-12-20T15:01:39;7.30;99.90
55083;DHT22;40978;52.850;6.506;2023-12-20T15:04:09;7.30;99.90
55083;DHT22;40978;52.850;6.506;2023-12-20T15:06:35;7.30;99.90
55083;DHT22;40978;52.850;6.506;2023-12-20T15:09:01;7.30;99.90
55083;DHT22;40978;52.850;6.506;2023-12-20T15:11:30;7.30;99.90
55083;DHT22;40978;52.850;6.506;2023-12-20T15:13:56;7.20;99.90
55083;DHT22;40978;52.850;6.506;2023-12-20T15:16:23;7.30;99.90
55083;DHT22;40978;52.850;6.506;2023-12-20T15:18:49;7.30;99.90
55083;DHT22;40978;52.850;6.506;2023-12-20T15:21:16;7.40;99.90
55083;DHT22;40978;52.850;6.506;2023-12-20T15:23:42;7.40;99.90
55083;DHT22;40978;52.850;6.506;2023-12-20T15:26:37;7.50;99.90
55083;DHT22;40978;52.850;6.506;2023-12-20T15:29:03;7.50;99.90
55083;DHT22;40978;52.850;6.506;2023-12-20T15:31:30;7.60;99.90
55083;DHT22;40978;52.850;6.506;2023-12-20T15:33:57;7.60;99.90
55083;DHT22;40978;52.850;6.506;2023-12-20T15:36:22;7.70;99.90
55083;DHT22;40978;52.850;6.506;2023-12-20T15:38:48;7.70;99.90
55083;DHT22;40978;52.850;6.506;2023-12-20T15:41:22;7.70;99.90
55083;DHT22;40978;52.850;6.506;2023-12-20T15:43:49;7.80;99.90
55083;DHT22;40978;52.850;6.506;2023-12-20T15:46:15;7.80;99.90
55083;DHT22;40978;52.850;6.506;2023-12-20T15:48:41;7.80;99.90